Time;durP1;ratioP1;P1;durP2;ratioP2;P2;SDS_P1;SDS_P2;PMS_P1;PMS_P2;Temp;Humidity;BMP_temperature;BMP_pressure;BME280_temperature;BME280_humidity;BME280_pressure;Samples;Min_cycle;Max_cycle;Signal;HPM_P1;HPM_P2
2022/01/17 00:01:33;;;;;;;15.35;9.57;;;7.10;96.70;;;;;;4911463;29;20048;-70
2022/01/17 00:04:01;;;;;;;13.82;9.68;;;7.10;96.70;;;;;;4920109;29;20044;-70
2022/01/17 00:06:30;;;;;;;15.25;10.55;;;7.00;96.70;;;;;;4917801;29;20079;-70
2022/01/17 00:08:58;;;;;;;14.40;9.00;;;7.00;96.70;;;;;;4919078;29;20040;-69
2022/01/17 00:11:27;;;;;;;13.30;9.43;;;6.90;96.70;;;;;;4896926;29;20036;-69
2022/01/17 00:13:56;;;;;;;11.45;8.82;;;7.00;96.70;;;;;;4917380;29;20060;-69
2022/01/17 00:16:33;;;;;;;16.50;9.73;;;7.00;96.70;;;;;;4918890;29;20155;-69
2022/01/17 00:19:31;;;;;;;16.00;9.43;;;7.00;96.70;;;;;;4916418;29;20047;-69
2022/01/17 00:21:55;;;;;;;12.80;8.38;;;7.00;96.70;;;;;;4919221;29;20424;-69
2022/01/17 00:24:23;;;;;;;15.57;8.35;;;7.00;96.70;;;;;;4905082;29;20091;-69
2022/01/17 00:26:53;;;;;;;10.35;7.40;;;6.90;96.70;;;;;;4919475;29;20051;-69
2022/01/17 00:29:25;;;;;;;13.15;8.00;;;6.90;96.70;;;;;;4913719;29;20047;-69
2022/01/17 00:31:54;;;;;;;10.43;6.65;;;6.90;96.70;;;;;;4902040;29;20143;-69
2022/01/17 00:34:22;;;;;;;13.50;8.32;;;6.90;96.70;;;;;;4899963;29;20058;-69
2022/01/17 00:36:50;;;;;;;11.10;7.38;;;6.90;96.70;;;;;;4899623;29;20071;-69
2022/01/17 00:39:18;;;;;;;11.40;7.68;;;7.00;96.70;;;;;;4897945;29;20043;-70
2022/01/17 00:41:47;;;;;;;14.95;8.52;;;6.90;96.70;;;;;;4914499;29;20056;-71
2022/01/17 00:44:21;;;;;;;13.13;7.72;;;6.90;96.70;;;;;;4916225;29;20036;-72
2022/01/17 00:46:51;;;;;;;13.80;8.43;;;6.90;96.70;;;;;;4890397;29;20051;-70
2022/01/17 00:49:22;;;;;;;16.08;7.78;;;6.90;96.70;;;;;;4902421;29;20044;-70
2022/01/17 00:51:50;;;;;;;14.10;7.93;;;6.90;96.70;;;;;;4916815;29;20039;-70
2022/01/17 00:54:18;;;;;;;15.05;7.88;;;6.70;96.70;;;;;;4913228;29;20722;-70
2022/01/17 00:56:46;;;;;;;11.27;7.38;;;6.70;96.70;;;;;;4916099;29;20047;-71
2022/01/17 00:59:16;;;;;;;14.25;8.32;;;6.60;96.70;;;;;;4899705;29;20736;-70
2022/01/17 01:01:44;;;;;;;12.88;7.60;;;6.50;96.70;;;;;;4902455;29;20581;-71
2022/01/17 01:04:13;;;;;;;13.52;7.85;;;6.50;96.70;;;;;;4901532;29;20615;-70
2022/01/17 01:06:41;;;;;;;10.35;7.88;;;6.60;96.70;;;;;;4908593;29;20115;-70
2022/01/17 01:09:09;;;;;;;12.68;7.40;;;6.60;96.70;;;;;;4913507;29;20131;-71
2022/01/17 01:11:37;;;;;;;13.15;7.80;;;6.60;96.70;;;;;;4910944;29;20414;-70
2022/01/17 01:14:05;;;;;;;10.63;7.35;;;6.40;96.70;;;;;;4899943;29;20056;-70
2022/01/17 01:16:36;;;;;;;10.93;7.47;;;6.40;96.70;;;;;;4877524;29;20735;-70
2022/01/17 01:19:19;;;;;;;13.65;7.57;;;6.30;96.70;;;;;;4898559;29;20055;-70
2022/01/17 01:21:59;;;;;;;10.90;7.55;;;6.30;96.70;;;;;;4876593;29;20040;-71
2022/01/17 01:30:08;;;;;;;9.80;6.97;;;6.40;96.70;;;;;;4898152;29;20472;-73
2022/01/17 01:32:45;;;;;;;9.30;5.93;;;6.40;96.70;;;;;;4882999;29;20328;-73
2022/01/17 01:35:16;;;;;;;8.13;5.60;;;6.30;96.70;;;;;;4879289;29;20044;-73
2022/01/17 01:37:46;;;;;;;7.55;5.00;;;6.30;96.70;;;;;;4882010;29;20132;-73
2022/01/17 01:40:16;;;;;;;5.97;4.60;;;6.30;96.70;;;;;;4897845;29;20123;-73
2022/01/17 01:42:45;;;;;;;6.50;4.53;;;6.30;96.70;;;;;;4895744;29;20535;-74
2022/01/17 01:45:14;;;;;;;6.28;4.60;;;6.30;96.70;;;;;;4876821;29;20044;-74
2022/01/17 01:47:44;;;;;;;5.60;3.92;;;6.40;96.70;;;;;;4885064;29;20051;-73
2022/01/17 01:50:12;;;;;;;5.88;3.95;;;6.40;96.70;;;;;;4880991;29;20040;-74
2022/01/17 01:52:43;;;;;;;7.53;3.70;;;6.40;96.70;;;;;;4882235;29;20040;-73
2022/01/17 01:55:13;;;;;;;6.18;4.30;;;6.40;96.70;;;;;;4878044;29;20582;-74
2022/01/17 01:57:43;;;;;;;8.38;4.47;;;6.30;96.70;;;;;;4886810;29;20052;-74
2022/01/17 02:00:13;;;;;;;9.80;5.85;;;6.20;96.70;;;;;;4879350;29;20537;-74
2022/01/17 02:02:43;;;;;;;6.22;4.50;;;6.30;96.70;;;;;;4891147;29;20055;-72
2022/01/17 02:05:12;;;;;;;7.07;5.35;;;6.30;96.70;;;;;;4899977;29;20516;-72
2022/01/17 02:07:43;;;;;;;9.75;5.15;;;6.40;96.70;;;;;;4880026;29;20492;-72
2022/01/17 02:10:12;;;;;;;9.63;5.53;;;6.20;96.70;;;;;;4897075;29;20342;-72
2022/01/17 02:12:40;;;;;;;10.20;5.88;;;6.20;96.70;;;;;;4882997;29;20072;-72
2022/01/17 02:15:13;;;;;;;8.93;5.85;;;6.30;96.70;;;;;;4916155;29;20051;-72
2022/01/17 02:17:54;;;;;;;8.68;5.72;;;6.30;96.70;;;;;;4914761;29;20036;-72
2022/01/17 02:20:28;;;;;;;8.63;5.93;;;6.20;96.70;;;;;;4921042;29;20063;-72
2022/01/17 02:22:57;;;;;;;8.57;6.30;;;6.20;96.70;;;;;;4926415;28;20055;-72
2022/01/17 02:25:25;;;;;;;8.90;6.07;;;6.30;96.70;;;;;;4917768;29;20044;-72
2022/01/17 02:27:53;;;;;;;11.45;6.30;;;6.10;96.70;;;;;;4913833;29;20043;-72
2022/01/17 02:30:23;;;;;;;8.93;5.93;;;6.10;96.70;;;;;;4917357;29;20036;-72
2022/01/17 02:32:51;;;;;;;9.30;6.50;;;6.10;96.70;;;;;;4910116;29;20050;-72
2022/01/17 02:35:20;;;;;;;9.18;6.75;;;5.90;96.70;;;;;;4891505;29;20517;-72
2022/01/17 02:37:51;;;;;;;7.68;6.18;;;5.80;96.70;;;;;;4899732;29;20051;-72
2022/01/17 02:40:21;;;;;;;9.25;6.78;;;6.00;96.70;;;;;;4922604;29;20099;-72
2022/01/17 02:42:51;;;;;;;8.45;6.00;;;6.00;96.70;;;;;;4919049;29;20053;-72
2022/01/17 02:48:09;;;;;;;9.82;6.63;;;6.00;96.70;;;;;;4894887;29;20070;-72
2022/01/17 02:50:39;;;;;;;12.52;6.80;;;6.10;96.70;;;;;;4918009;29;20067;-72
2022/01/17 02:53:09;;;;;;;11.82;7.25;;;6.20;96.70;;;;;;4898481;29;20045;-73
2022/01/17 02:55:39;;;;;;;10.50;7.10;;;6.20;96.70;;;;;;4915942;29;20059;-72
2022/01/17 02:58:07;;;;;;;9.45;6.78;;;6.00;96.70;;;;;;4903196;29;20060;-72
2022/01/17 03:00:35;;;;;;;12.63;7.50;;;5.90;96.70;;;;;;4922634;29;20090;-72
2022/01/17 03:03:04;;;;;;;9.55;7.32;;;5.80;96.70;;;;;;4917551;29;20075;-72
2022/01/17 03:05:32;;;;;;;12.52;7.50;;;5.80;96.70;;;;;;4903591;29;20040;-72
2022/01/17 03:08:00;;;;;;;11.55;8.32;;;5.90;96.70;;;;;;4919295;29;20044;-72
2022/01/17 03:10:39;;;;;;;11.23;8.43;;;5.90;96.70;;;;;;4917383;29;20040;-72
2022/01/17 03:13:10;;;;;;;12.93;8.55;;;5.80;96.70;;;;;;4903937;29;20059;-71
2022/01/17 03:15:38;;;;;;;13.98;9.05;;;5.90;96.70;;;;;;4904184;29;20063;-72
2022/01/17 03:18:07;;;;;;;14.80;9.25;;;5.80;96.70;;;;;;4897659;29;20044;-72
2022/01/17 03:20:37;;;;;;;11.20;8.35;;;5.70;96.70;;;;;;4897849;29;20138;-72
2022/01/17 03:23:07;;;;;;;12.55;9.45;;;5.80;96.70;;;;;;4915543;29;20059;-72
2022/01/17 03:25:36;;;;;;;10.70;7.70;;;5.90;96.70;;;;;;4921369;29;20506;-72
2022/01/17 03:28:05;;;;;;;9.55;7.20;;;6.00;96.70;;;;;;4898682;29;20142;-72
2022/01/17 03:30:34;;;;;;;12.65;7.35;;;5.90;96.70;;;;;;4901937;29;20398;-72
2022/01/17 03:33:05;;;;;;;9.95;7.80;;;5.70;96.70;;;;;;4921292;29;20047;-72
2022/01/17 03:35:34;;;;;;;8.57;6.55;;;5.40;96.70;;;;;;4924468;29;20048;-72
2022/01/17 03:38:02;;;;;;;9.80;6.97;;;5.20;96.70;;;;;;4916684;29;20102;-72
2022/01/17 03:40:31;;;;;;;10.85;7.32;;;5.40;96.70;;;;;;4896570;29;20056;-71
2022/01/17 03:43:01;;;;;;;12.48;7.50;;;5.30;96.70;;;;;;4904122;29;20135;-72
2022/01/17 03:45:30;;;;;;;11.20;7.45;;;5.30;96.70;;;;;;4914079;29;20053;-72
2022/01/17 03:47:58;;;;;;;11.82;7.40;;;5.40;96.70;;;;;;4896632;29;20056;-72
2022/01/17 03:50:28;;;;;;;9.35;6.68;;;5.40;96.70;;;;;;4920369;29;20047;-72
2022/01/17 03:52:57;;;;;;;13.50;7.55;;;5.50;96.70;;;;;;4919666;29;20051;-72
2022/01/17 03:55:27;;;;;;;10.48;7.10;;;5.50;96.70;;;;;;4902056;29;20066;-72
2022/01/17 03:57:56;;;;;;;12.88;8.25;;;5.50;96.70;;;;;;4917696;29;20040;-72
2022/01/17 04:00:28;;;;;;;16.02;8.43;;;5.60;96.70;;;;;;4915807;29;20044;-72
2022/01/17 04:02:59;;;;;;;9.88;7.32;;;5.60;96.70;;;;;;4902009;29;20043;-72
2022/01/17 04:05:28;;;;;;;12.80;9.27;;;5.60;96.70;;;;;;4918812;29;20087;-72
2022/01/17 04:07:56;;;;;;;10.38;8.05;;;5.50;96.70;;;;;;4921688;29;20058;-72
2022/01/17 04:10:24;;;;;;;11.38;8.18;;;5.40;96.70;;;;;;4917751;29;20044;-72
2022/01/17 04:12:55;;;;;;;11.18;8.43;;;5.40;96.70;;;;;;4914632;29;20123;-73
2022/01/17 04:15:27;;;;;;;11.15;7.72;;;5.50;96.70;;;;;;4914064;29;20142;-72
2022/01/17 04:17:57;;;;;;;12.75;8.35;;;5.50;96.70;;;;;;4898977;29;20278;-69
2022/01/17 04:20:27;;;;;;;15.05;8.52;;;5.60;96.70;;;;;;4915700;29;20036;-72
2022/01/17 04:22:57;;;;;;;15.57;8.40;;;5.60;96.70;;;;;;4896092;29;20143;-72
2022/01/17 04:25:27;;;;;;;12.23;7.78;;;5.50;96.70;;;;;;4922195;29;20118;-71
2022/01/17 04:27:56;;;;;;;14.55;8.10;;;5.30;96.70;;;;;;4906646;29;20162;-71
2022/01/17 04:30:27;;;;;;;13.63;7.60;;;5.30;96.70;;;;;;4913542;29;20682;-71
2022/01/17 04:32:56;;;;;;;12.98;7.88;;;5.40;96.70;;;;;;4912538;29;20119;-71
2022/01/17 04:35:26;;;;;;;11.02;8.10;;;5.50;96.70;;;;;;4918597;29;20071;-71
2022/01/17 04:37:56;;;;;;;12.90;8.23;;;5.60;96.70;;;;;;4915148;29;20043;-71
2022/01/17 04:40:25;;;;;;;13.35;8.93;;;5.50;96.70;;;;;;4917442;29;20046;-71
2022/01/17 04:42:56;;;;;;;13.52;8.38;;;5.30;96.70;;;;;;4921311;29;20126;-71
2022/01/17 04:45:26;;;;;;;12.82;8.85;;;5.30;96.70;;;;;;4914513;29;20480;-72
2022/01/17 04:47:54;;;;;;;13.75;9.13;;;5.20;96.70;;;;;;4915754;29;20050;-71
2022/01/17 04:50:24;;;;;;;13.82;9.15;;;5.20;96.70;;;;;;4919589;29;20135;-71
2022/01/17 04:52:55;;;;;;;16.90;9.32;;;5.10;96.70;;;;;;4898276;29;20036;-72
2022/01/17 04:55:25;;;;;;;12.10;8.88;;;5.10;96.70;;;;;;4913553;29;20063;-71
2022/01/17 04:57:57;;;;;;;14.07;8.45;;;5.10;96.70;;;;;;4913728;29;20048;-72
2022/01/17 05:00:27;;;;;;;21.75;10.57;;;5.30;96.70;;;;;;4920045;29;20067;-72
2022/01/17 05:02:56;;;;;;;17.30;9.20;;;5.30;96.70;;;;;;4902206;29;20730;-71
2022/01/17 05:05:25;;;;;;;17.88;10.05;;;5.30;96.70;;;;;;4901153;29;20125;-72
2022/01/17 05:07:53;;;;;;;18.63;10.43;;;5.30;96.70;;;;;;4896008;29;20381;-71
2022/01/17 05:10:22;;;;;;;20.58;10.10;;;5.40;96.70;;;;;;4918098;29;20040;-71
2022/01/17 05:12:52;;;;;;;16.42;9.10;;;5.30;96.70;;;;;;4916034;29;20043;-72
2022/01/17 05:15:46;;;;;;;20.08;10.98;;;5.20;96.70;;;;;;4914672;29;20126;-72
2022/01/17 05:19:47;;;;;;;16.90;9.18;;;5.10;96.70;;;;;;4915844;29;20237;-71
2022/01/17 05:21:02;;;;;;;15.27;9.52;;;5.20;96.70;;;;;;4914131;29;20048;-72
2022/01/17 05:23:31;;;;;;;12.98;8.77;;;5.10;96.70;;;;;;4897397;29;20048;-71
2022/01/17 05:25:59;;;;;;;11.00;7.75;;;5.10;96.70;;;;;;4880317;29;20040;-71
2022/01/17 05:28:27;;;;;;;10.55;6.95;;;5.10;96.70;;;;;;4915756;29;20594;-71
2022/01/17 05:30:56;;;;;;;9.25;6.50;;;5.00;96.70;;;;;;4897893;29;20052;-71
2022/01/17 05:33:26;;;;;;;11.05;6.82;;;5.00;96.70;;;;;;4917035;29;20502;-71
2022/01/17 05:35:54;;;;;;;11.07;6.53;;;5.00;96.70;;;;;;4914313;29;20055;-71
2022/01/17 05:38:22;;;;;;;10.23;7.20;;;4.90;96.70;;;;;;4916882;29;20642;-71
2022/01/17 05:40:51;;;;;;;9.95;6.50;;;4.90;96.70;;;;;;4911371;29;20044;-71
2022/01/17 05:43:19;;;;;;;10.07;6.78;;;4.90;96.70;;;;;;4901034;29;20044;-71
2022/01/17 05:45:47;;;;;;;10.57;6.68;;;4.90;96.70;;;;;;4917959;29;20047;-70
2022/01/17 05:48:16;;;;;;;10.88;6.20;;;4.90;96.70;;;;;;4916871;29;20047;-71
2022/01/17 05:50:46;;;;;;;10.55;6.88;;;4.90;96.70;;;;;;4913937;29;20051;-71
2022/01/17 05:53:14;;;;;;;10.15;6.20;;;4.80;96.70;;;;;;4901718;29;20075;-71
2022/01/17 05:55:43;;;;;;;8.68;6.20;;;4.80;96.70;;;;;;4920186;29;20067;-71
2022/01/17 05:58:12;;;;;;;11.70;6.45;;;4.70;96.70;;;;;;4917064;29;20051;-71
2022/01/17 06:00:41;;;;;;;9.73;6.05;;;4.70;96.70;;;;;;4914024;29;20581;-71
2022/01/17 06:03:09;;;;;;;10.00;5.93;;;4.70;96.70;;;;;;4900751;29;20040;-71
2022/01/17 06:05:38;;;;;;;8.00;5.95;;;4.70;96.70;;;;;;4897738;29;20388;-71
2022/01/17 06:08:08;;;;;;;9.35;5.45;;;4.70;96.70;;;;;;4921382;29;20052;-71
2022/01/17 06:10:38;;;;;;;10.40;6.00;;;4.70;96.70;;;;;;4919691;29;20040;-71
2022/01/17 06:13:06;;;;;;;11.40;6.15;;;4.60;96.70;;;;;;4922607;29;20134;-71
2022/01/17 06:15:34;;;;;;;9.90;5.88;;;4.70;96.70;;;;;;4895326;29;20044;-70
2022/01/17 06:18:03;;;;;;;12.93;6.35;;;4.50;96.70;;;;;;4881310;29;20515;-71
2022/01/17 06:20:31;;;;;;;11.95;6.68;;;4.50;96.70;;;;;;4905300;29;20044;-71
2022/01/17 06:23:00;;;;;;;10.60;7.10;;;4.60;96.70;;;;;;4900582;29;20044;-71
2022/01/17 06:25:30;;;;;;;11.07;6.93;;;4.60;96.70;;;;;;4881370;29;20049;-71
2022/01/17 06:27:58;;;;;;;13.82;7.75;;;4.50;96.70;;;;;;4902275;29;20321;-71
2022/01/17 06:30:27;;;;;;;12.35;7.22;;;4.60;96.70;;;;;;4900135;29;20610;-71
2022/01/17 06:32:55;;;;;;;15.18;7.55;;;4.70;96.70;;;;;;4889208;29;20541;-71
2022/01/17 06:35:24;;;;;;;12.23;7.45;;;4.70;96.70;;;;;;4873841;29;20116;-71
2022/01/17 06:37:52;;;;;;;16.92;7.70;;;4.60;96.70;;;;;;4887100;29;20652;-71
2022/01/17 06:40:21;;;;;;;14.13;7.07;;;4.60;96.70;;;;;;4900978;29;20186;-71
2022/01/17 06:42:51;;;;;;;12.00;6.68;;;4.60;96.70;;;;;;4900856;29;20410;-71
2022/01/17 06:45:19;;;;;;;11.73;5.90;;;4.60;96.70;;;;;;4873143;29;20543;-71
2022/01/17 06:47:47;;;;;;;10.93;5.85;;;4.60;96.70;;;;;;4904870;29;20043;-71
2022/01/17 06:50:16;;;;;;;10.38;5.93;;;4.60;96.70;;;;;;4893639;29;20044;-71
2022/01/17 06:52:45;;;;;;;9.18;6.22;;;4.60;96.70;;;;;;4878669;29;20154;-71
2022/01/17 06:55:13;;;;;;;14.50;6.07;;;4.60;96.70;;;;;;4886283;29;20048;-71
2022/01/17 06:57:42;;;;;;;12.13;6.05;;;4.50;96.70;;;;;;4899184;29;20513;-71
2022/01/17 07:00:13;;;;;;;15.52;6.53;;;4.60;96.70;;;;;;4885610;29;20139;-71
2022/01/17 07:02:47;;;;;;;10.10;5.55;;;4.50;96.70;;;;;;4881880;29;20051;-71
2022/01/17 07:05:15;;;;;;;10.63;5.60;;;4.40;96.70;;;;;;4884133;29;20037;-71
2022/01/17 07:07:44;;;;;;;13.40;5.88;;;4.30;96.70;;;;;;4894764;29;20052;-71
2022/01/17 07:10:13;;;;;;;12.18;5.60;;;4.30;96.70;;;;;;4883235;29;20041;-70
2022/01/17 07:12:41;;;;;;;9.95;5.03;;;4.30;96.70;;;;;;4881753;29;20052;-71
2022/01/17 07:15:11;;;;;;;11.30;6.07;;;4.30;96.70;;;;;;4918251;29;20058;-70
2022/01/17 07:17:40;;;;;;;9.52;5.28;;;4.50;96.70;;;;;;4919367;29;20188;-71
2022/01/17 07:20:09;;;;;;;14.77;6.20;;;4.50;96.70;;;;;;4918848;29;20466;-71
2022/01/17 07:22:37;;;;;;;11.13;5.65;;;4.50;96.70;;;;;;4911546;29;20059;-71
2022/01/17 07:25:07;;;;;;;12.55;5.70;;;4.50;96.70;;;;;;4915668;29;20048;-71
2022/01/17 07:27:36;;;;;;;13.35;5.97;;;4.50;96.70;;;;;;4896386;29;20052;-71
2022/01/17 07:30:06;;;;;;;13.20;5.97;;;4.50;96.70;;;;;;4920795;29;20068;-71
2022/01/17 07:32:37;;;;;;;11.70;6.10;;;4.50;96.70;;;;;;4925666;29;20063;-71
2022/01/17 07:35:07;;;;;;;11.43;6.13;;;4.50;96.70;;;;;;4917954;29;20088;-71
2022/01/17 07:37:35;;;;;;;12.65;6.60;;;4.50;96.70;;;;;;4903645;29;20052;-71
2022/01/17 07:40:06;;;;;;;7.97;5.40;;;4.50;96.70;;;;;;4919553;29;20102;-71
2022/01/17 07:42:35;;;;;;;11.27;5.88;;;4.50;96.70;;;;;;4898369;29;20075;-71
2022/01/17 07:45:11;;;;;;;9.90;6.63;;;4.50;96.70;;;;;;4904802;29;20676;-71
2022/01/17 07:48:07;;;;;;;12.20;6.70;;;4.50;96.70;;;;;;4921108;29;20043;-71
2022/01/17 07:50:54;;;;;;;13.00;6.57;;;4.60;96.70;;;;;;4894418;29;20096;-71
2022/01/17 07:53:22;;;;;;;12.05;7.15;;;4.30;96.70;;;;;;4891187;29;20620;-71
2022/01/17 07:55:50;;;;;;;10.50;6.68;;;4.30;96.70;;;;;;4892325;29;20527;-70
2022/01/17 07:58:18;;;;;;;10.73;6.00;;;4.30;96.70;;;;;;4898487;29;20127;-71
2022/01/17 08:00:46;;;;;;;10.45;7.00;;;4.30;96.70;;;;;;4889545;29;20052;-71
2022/01/17 08:03:16;;;;;;;12.57;6.53;;;4.30;96.70;;;;;;4892950;29;20045;-70
2022/01/17 08:05:44;;;;;;;11.27;6.50;;;4.30;96.70;;;;;;4898185;29;20057;-71
2022/01/17 08:08:12;;;;;;;11.43;8.00;;;4.30;96.70;;;;;;4884378;29;20400;-70
2022/01/17 08:10:40;;;;;;;13.48;7.60;;;4.60;96.70;;;;;;4885698;29;20065;-71
2022/01/17 08:13:09;;;;;;;13.55;7.97;;;4.60;96.70;;;;;;4897742;29;20146;-70
2022/01/17 08:15:38;;;;;;;13.57;7.93;;;4.70;96.70;;;;;;4893430;29;20065;-71
2022/01/17 08:18:06;;;;;;;15.48;8.82;;;4.70;96.70;;;;;;4895949;29;20100;-73
2022/01/17 08:20:35;;;;;;;15.23;8.82;;;4.70;96.70;;;;;;4890411;29;20096;-73
2022/01/17 08:23:04;;;;;;;13.48;8.32;;;4.90;96.70;;;;;;4922416;29;20429;-71
2022/01/17 08:25:32;;;;;;;15.52;9.15;;;5.00;96.70;;;;;;4918753;29;20071;-70
2022/01/17 08:28:01;;;;;;;15.82;9.55;;;5.00;96.70;;;;;;4917225;29;20056;-74
2022/01/17 08:30:30;;;;;;;18.77;9.27;;;5.00;96.70;;;;;;4916428;29;20066;-73
2022/01/17 08:33:18;;;;;;;13.88;9.23;;;5.10;96.70;;;;;;4902919;29;20050;-70
2022/01/17 08:35:48;;;;;;;18.30;10.45;;;5.20;96.70;;;;;;4902058;29;20375;-70
2022/01/17 08:38:35;;;;;;;18.73;10.32;;;5.00;96.70;;;;;;4896657;29;20062;-70
2022/01/17 08:41:04;;;;;;;25.42;11.40;;;5.00;96.70;;;;;;4902021;29;20044;-70
2022/01/17 08:43:32;;;;;;;21.48;10.50;;;5.20;96.70;;;;;;4916948;29;20043;-69
2022/01/17 08:46:03;;;;;;;19.00;10.35;;;5.20;96.70;;;;;;4918794;29;20066;-70
2022/01/17 08:48:31;;;;;;;20.35;10.75;;;5.30;96.70;;;;;;4914278;29;20056;-70
2022/01/17 08:51:00;;;;;;;19.88;10.02;;;5.60;96.70;;;;;;4913034;29;20435;-71
2022/01/17 08:53:29;;;;;;;17.50;10.23;;;5.60;96.70;;;;;;4913442;29;20580;-70
2022/01/17 08:55:57;;;;;;;17.25;9.48;;;5.80;96.70;;;;;;4897574;29;20048;-70
2022/01/17 08:58:25;;;;;;;17.58;9.82;;;5.90;96.70;;;;;;4887275;29;20775;-70
2022/01/17 09:00:56;;;;;;;18.50;9.95;;;5.90;96.70;;;;;;4915695;29;20837;-70
2022/01/17 09:03:26;;;;;;;21.63;10.73;;;5.90;96.70;;;;;;4889773;29;20051;-70
2022/01/17 09:05:54;;;;;;;24.27;12.05;;;5.90;96.70;;;;;;4914273;29;20052;-70
2022/01/17 09:08:24;;;;;;;22.77;11.70;;;5.80;96.70;;;;;;4897965;29;20656;-70
2022/01/17 09:10:55;;;;;;;21.05;11.98;;;5.80;96.70;;;;;;4903168;29;20625;-70
2022/01/17 09:13:24;;;;;;;23.25;11.05;;;5.70;96.70;;;;;;4900949;29;20043;-70
2022/01/17 09:15:52;;;;;;;17.70;10.70;;;5.70;96.70;;;;;;4919457;29;20509;-71
2022/01/17 09:31:47;;;;;;;10.40;8.15;;;5.80;96.70;;;;;;5095263;27;20460;-74
2022/01/17 09:34:16;;;;;;;10.48;9.23;;;6.50;96.70;;;;;;5097975;28;20413;-75
2022/01/17 09:36:44;;;;;;;10.98;9.20;;;6.60;96.70;;;;;;5088185;28;20032;-79
2022/01/17 09:39:13;;;;;;;14.20;10.73;;;6.70;96.70;;;;;;5085639;28;20040;-75
2022/01/17 09:41:41;;;;;;;14.15;10.85;;;6.70;96.70;;;;;;5090267;28;20084;-75
2022/01/17 09:44:09;;;;;;;13.30;10.77;;;6.80;96.70;;;;;;5108032;27;20404;-74
2022/01/17 09:46:43;;;;;;;13.20;10.18;;;7.00;96.70;;;;;;5076713;28;20923;-75
2022/01/17 09:49:22;;;;;;;12.27;9.25;;;7.00;96.70;;;;;;5093267;28;20126;-74
2022/01/17 09:54:31;;;;;;;12.35;9.38;;;7.10;96.70;;;;;;5089229;28;20712;-74
2022/01/17 09:57:01;;;;;;;11.63;9.20;;;7.10;96.70;;;;;;5087329;28;20501;-78
2022/01/17 09:59:30;;;;;;;12.95;10.07;;;7.00;96.70;;;;;;5088082;28;20049;-77
2022/01/17 10:01:59;;;;;;;12.57;8.65;;;7.20;96.70;;;;;;5089663;28;20036;-77
2022/01/17 10:04:29;;;;;;;12.45;9.77;;;7.40;96.70;;;;;;5100326;28;20135;-75
2022/01/17 10:06:59;;;;;;;13.05;9.60;;;7.60;96.70;;;;;;5094930;28;20067;-74
2022/01/17 10:09:28;;;;;;;15.18;9.48;;;7.80;96.70;;;;;;5090109;28;20052;-77
2022/01/17 10:12:08;;;;;;;15.50;10.65;;;8.00;96.70;;;;;;5089655;28;20047;-72
2022/01/17 10:14:39;;;;;;;14.50;10.25;;;8.20;96.70;;;;;;5092708;28;20443;-75
2022/01/17 10:17:11;;;;;;;18.23;10.65;;;8.30;96.70;;;;;;5096846;28;20131;-72
2022/01/17 10:19:42;;;;;;;14.45;10.40;;;8.50;96.70;;;;;;5091668;28;20125;-73
2022/01/17 10:22:16;;;;;;;13.23;9.13;;;8.60;96.70;;;;;;5092915;28;20039;-75
2022/01/17 10:27:52;;;;;;;14.02;9.65;;;8.60;96.70;;;;;;5094375;27;20131;-73
2022/01/17 10:35:59;;;;;;;11.48;8.68;;;8.70;96.70;;;;;;5072890;28;20110;-74
2022/01/17 10:38:28;;;;;;;11.85;9.32;;;8.80;96.70;;;;;;5078044;28;20345;-75
2022/01/17 10:40:58;;;;;;;12.07;8.77;;;9.00;96.70;;;;;;5079530;28;20044;-73
2022/01/17 10:43:33;;;;;;;10.77;8.30;;;9.10;96.70;;;;;;5072905;28;20094;-75
2022/01/17 10:46:03;;;;;;;14.27;10.13;;;9.30;96.70;;;;;;5078312;28;20059;-75
2022/01/17 10:48:34;;;;;;;12.90;10.23;;;9.40;96.70;;;;;;5073467;28;20058;-75
2022/01/17 10:51:06;;;;;;;14.90;10.23;;;9.50;96.70;;;;;;5066431;28;20063;-75
2022/01/17 10:53:36;;;;;;;14.07;10.02;;;9.50;96.70;;;;;;5065430;28;20162;-75
2022/01/17 10:56:08;;;;;;;15.25;10.60;;;9.60;96.70;;;;;;5075440;28;20104;-75
2022/01/17 10:58:38;;;;;;;15.43;11.32;;;9.70;96.70;;;;;;5081367;28;20043;-75
2022/01/17 11:01:10;;;;;;;16.42;11.15;;;9.90;96.70;;;;;;5086329;28;20048;-75
2022/01/17 11:03:42;;;;;;;13.00;10.20;;;10.00;96.70;;;;;;5074670;28;20074;-75
2022/01/17 11:06:14;;;;;;;16.60;11.60;;;10.10;96.70;;;;;;5079185;28;20032;-75
2022/01/17 11:08:45;;;;;;;13.85;10.60;;;10.10;96.70;;;;;;5072980;28;20140;-75
2022/01/17 11:11:13;;;;;;;14.95;10.05;;;10.20;96.70;;;;;;5077613;28;20096;-75
2022/01/17 11:13:44;;;;;;;13.77;9.57;;;10.20;96.70;;;;;;5080771;28;20062;-75
2022/01/17 11:16:13;;;;;;;15.38;10.68;;;10.30;96.70;;;;;;5079683;28;20075;-75
2022/01/17 11:18:44;;;;;;;11.10;8.27;;;10.40;96.70;;;;;;5079893;28;20374;-75
2022/01/17 11:21:17;;;;;;;12.70;8.60;;;10.40;96.70;;;;;;5070057;28;20044;-75
2022/01/17 11:23:49;;;;;;;13.35;9.95;;;10.40;96.70;;;;;;5078886;28;20489;-75
2022/01/17 11:26:18;;;;;;;12.27;8.20;;;10.50;96.70;;;;;;5072401;28;20040;-75
2022/01/17 11:28:49;;;;;;;11.43;9.43;;;10.50;96.70;;;;;;5072556;28;20414;-75
2022/01/17 11:31:17;;;;;;;10.07;8.02;;;10.60;96.70;;;;;;5076068;28;20129;-75
2022/01/17 11:33:46;;;;;;;10.73;7.72;;;10.70;96.70;;;;;;5083699;28;20696;-75
2022/01/17 11:36:17;;;;;;;10.43;7.40;;;10.80;96.70;;;;;;5077511;28;20048;-75
2022/01/17 11:38:48;;;;;;;14.93;9.32;;;11.00;96.70;;;;;;5081618;28;20354;-75
2022/01/17 11:41:25;;;;;;;12.35;8.18;;;11.00;96.70;;;;;;5076607;28;20063;-75
2022/01/17 11:43:59;;;;;;;11.77;8.18;;;11.10;96.70;;;;;;5070272;28;20120;-75
2022/01/17 11:46:29;;;;;;;10.27;7.97;;;11.30;96.70;;;;;;5083415;28;20816;-75
2022/01/17 11:48:59;;;;;;;12.15;8.35;;;11.40;96.70;;;;;;5081573;28;20040;-75
2022/01/17 11:51:40;;;;;;;10.98;8.27;;;11.50;96.70;;;;;;5076638;28;20051;-75
2022/01/17 11:54:13;;;;;;;12.05;8.20;;;11.70;96.70;;;;;;5071993;28;20039;-75
2022/01/17 11:56:48;;;;;;;10.48;7.90;;;11.70;96.70;;;;;;5075928;28;20483;-75
2022/01/17 11:59:36;;;;;;;13.05;8.25;;;11.70;96.70;;;;;;5067875;28;20090;-75
2022/01/17 12:02:30;;;;;;;10.43;8.05;;;11.80;96.70;;;;;;5081830;28;20117;-74
2022/01/17 12:05:42;;;;;;;11.48;8.20;;;12.00;96.70;;;;;;5055840;28;20060;-75
2022/01/17 12:08:21;;;;;;;11.85;8.45;;;12.10;96.70;;;;;;5082434;28;20063;-75
2022/01/17 12:10:53;;;;;;;12.05;8.52;;;12.20;96.70;;;;;;5078746;28;20053;-75
2022/01/17 12:13:39;;;;;;;12.02;7.90;;;12.30;96.70;;;;;;5076831;28;20036;-75
2022/01/17 12:16:29;;;;;;;13.02;7.68;;;12.40;96.70;;;;;;5081740;28;20048;-75
2022/01/17 12:19:08;;;;;;;10.07;7.75;;;12.40;96.70;;;;;;5071050;28;20617;-73
2022/01/17 12:21:40;;;;;;;10.00;7.47;;;12.50;96.70;;;;;;5071550;28;20109;-73
2022/01/17 12:24:35;;;;;;;10.27;7.93;;;12.60;96.70;;;;;;5074321;28;20040;-75
2022/01/17 12:27:11;;;;;;;15.35;7.88;;;12.70;96.70;;;;;;5072858;28;20533;-75
2022/01/17 12:29:41;;;;;;;13.30;8.07;;;12.90;96.70;;;;;;5075523;28;20079;-75
2022/01/17 12:32:45;;;;;;;11.32;7.97;;;12.90;96.70;;;;;;5079487;28;20083;-75
2022/01/17 12:35:17;;;;;;;12.50;7.80;;;12.90;96.70;;;;;;5072267;28;20119;-75
2022/01/17 12:37:48;;;;;;;9.82;7.50;;;13.00;96.70;;;;;;5069231;28;20565;-73
2022/01/17 12:40:20;;;;;;;14.25;7.57;;;13.10;96.70;;;;;;5072719;28;20048;-73
2022/01/17 12:42:57;;;;;;;9.70;7.50;;;13.20;96.70;;;;;;5057343;28;20051;-75
2022/01/17 12:45:29;;;;;;;13.02;7.72;;;13.20;96.70;;;;;;5083515;28;20523;-75
2022/01/17 12:47:59;;;;;;;11.02;7.65;;;13.30;96.70;;;;;;5074104;28;20035;-75
2022/01/17 12:50:32;;;;;;;11.15;7.13;;;13.50;96.70;;;;;;5073002;28;20040;-75
2022/01/17 12:53:03;;;;;;;12.20;7.60;;;13.60;96.70;;;;;;5078100;28;20521;-75
2022/01/17 12:55:39;;;;;;;14.73;7.95;;;13.60;96.70;;;;;;5078947;28;20146;-75
2022/01/17 12:58:13;;;;;;;11.27;7.18;;;13.60;96.70;;;;;;5072591;28;20102;-75
2022/01/17 13:00:47;;;;;;;10.70;7.35;;;13.60;96.70;;;;;;5077662;28;20054;-73
2022/01/17 13:03:16;;;;;;;12.63;7.20;;;13.70;96.70;;;;;;5081601;28;20040;-73
2022/01/17 13:05:46;;;;;;;11.90;8.20;;;13.70;96.70;;;;;;5072355;28;20058;-74
2022/01/17 13:08:15;;;;;;;11.27;7.90;;;13.80;96.70;;;;;;5079005;28;20036;-73
2022/01/17 13:10:52;;;;;;;10.25;8.05;;;13.80;96.70;;;;;;5069972;28;20045;-75
2022/01/17 13:13:21;;;;;;;10.38;7.47;;;13.80;96.70;;;;;;5077879;28;20044;-75
2022/01/17 13:15:54;;;;;;;12.02;8.18;;;13.90;96.70;;;;;;5078725;28;20068;-75
2022/01/17 13:18:22;;;;;;;14.35;8.25;;;13.90;96.70;;;;;;5080490;28;20067;-75
2022/01/17 13:20:51;;;;;;;21.67;13.50;;;13.90;96.70;;;;;;5083427;28;20051;-75
2022/01/17 13:23:29;;;;;;;16.05;10.82;;;14.00;96.70;;;;;;5082347;28;20037;-75
2022/01/17 13:26:00;;;;;;;13.88;8.23;;;14.00;96.70;;;;;;5079010;28;20356;-75
2022/01/17 13:28:28;;;;;;;13.07;9.20;;;14.00;96.70;;;;;;5064221;28;20125;-73
2022/01/17 13:30:57;;;;;;;12.05;8.63;;;14.00;96.70;;;;;;5077022;28;20076;-74
2022/01/17 13:33:28;;;;;;;13.88;8.13;;;14.10;96.70;;;;;;5074536;28;20045;-74
2022/01/17 13:35:56;;;;;;;16.27;8.88;;;14.10;96.70;;;;;;5073324;28;20036;-73
2022/01/17 13:38:25;;;;;;;12.65;8.88;;;14.10;96.70;;;;;;5070873;28;20056;-77